Time;durP1;ratioP1;P1;durP2;ratioP2;P2;SDS_P1;SDS_P2;PMS_P1;PMS_P2;Temp;Humidity;BMP_temperature;BMP_pressure;BME280_temperature;BME280_humidity;BME280_pressure;Samples;Min_cycle;Max_cycle;Signal;HPM_P1;HPM_P2
2023/06/14 00:00:03;;;;;;;;;;;23.10;57.40;;;;;;10348199;28;1451;-73
2023/06/14 00:05:11;;;;;;;;;;;23.10;57.50;;;;;;10366284;28;1362;-73
2023/06/14 00:10:10;;;;;;;;;;;23.10;57.40;;;;;;10366992;28;1906;-73
2023/06/14 00:15:10;;;;;;;;;;;23.10;57.50;;;;;;10367560;28;849;-73
2023/06/14 00:20:06;;;;;;;;;;;23.10;57.30;;;;;;10366938;28;949;-73
2023/06/14 00:25:01;;;;;;;;;;;23.10;57.30;;;;;;10367178;28;846;-73
2023/06/14 00:29:58;;;;;;;;;;;23.10;57.30;;;;;;10366956;28;1898;-73
2023/06/14 00:35:07;;;;;;;;;;;23.00;57.20;;;;;;10366922;28;1467;-73
2023/06/14 00:45:53;;;;;;;;;;;;;;;;;;;;;
2023/06/14 00:51:06;;;;;;;;;;;23.10;57.30;;;;;;10364934;28;1909;-73
2023/06/14 00:56:05;;;;;;;;;;;23.00;57.10;;;;;;10366497;28;836;-73
2023/06/14 01:01:21;;;;;;;;;;;23.10;57.10;;;;;;10366457;28;1695;-73
2023/06/14 01:06:26;;;;;;;;;;;23.00;57.00;;;;;;10366090;28;1614;-73
2023/06/14 01:11:29;;;;;;;;;;;23.00;57.10;;;;;;10365937;28;1902;-73
2023/06/14 01:16:40;;;;;;;;;;;23.00;57.10;;;;;;10364282;28;1057;-73
2023/06/14 01:21:50;;;;;;;;;;;23.00;57.10;;;;;;10365048;28;1306;-73
2023/06/14 01:27:07;;;;;;;;;;;23.00;57.10;;;;;;10365044;28;1276;-73
2023/06/14 01:32:01;;;;;;;;;;;23.00;57.00;;;;;;10365275;28;1906;-73
2023/06/14 01:42:14;;;;;;;;;;;23.00;57.00;;;;;;10365608;28;1554;-73
2023/06/14 01:47:16;;;;;;;;;;;23.00;56.90;;;;;;10365577;28;939;-73
2023/06/14 01:52:15;;;;;;;;;;;23.00;57.10;;;;;;10366751;28;1973;-73
2023/06/14 01:57:13;;;;;;;;;;;23.00;57.00;;;;;;10372823;28;1320;-73
2023/06/14 02:02:12;;;;;;;;;;;23.00;57.10;;;;;;10373142;28;1335;-73
2023/06/14 02:07:17;;;;;;;;;;;22.90;56.90;;;;;;10372918;28;923;-73
2023/06/14 02:12:12;;;;;;;;;;;23.00;57.00;;;;;;10372510;28;1910;-73
2023/06/14 02:17:11;;;;;;;;;;;23.00;57.10;;;;;;10372137;28;829;-73
2023/06/14 02:22:20;;;;;;;;;;;23.00;57.10;;;;;;10370499;28;1366;-73
2023/06/14 02:27:21;;;;;;;;;;;22.90;57.00;;;;;;10370553;28;1150;-73
2023/06/14 02:32:23;;;;;;;;;;;22.90;57.00;;;;;;10372578;28;1901;-73
2023/06/14 02:37:18;;;;;;;;;;;23.00;57.10;;;;;;10371256;28;1186;-73
2023/06/14 02:47:39;;;;;;;;;;;22.90;57.00;;;;;;10368552;28;1285;-73
2023/06/14 02:52:55;;;;;;;;;;;22.90;57.00;;;;;;10367112;28;1906;-73
2023/06/14 03:08:38;;;;;;;;;;;22.90;56.90;;;;;;10367631;28;1566;-73
2023/06/14 03:13:34;;;;;;;;;;;22.90;56.90;;;;;;10370456;28;1935;-73
2023/06/14 03:18:50;;;;;;;;;;;22.90;57.00;;;;;;10370601;28;934;-73
2023/06/14 03:34:27;;;;;;;;;;;22.80;56.90;;;;;;10368441;28;1957;-73
2023/06/14 03:39:25;;;;;;;;;;;22.80;56.90;;;;;;10368286;28;1337;-73
2023/06/14 03:44:36;;;;;;;;;;;22.80;56.90;;;;;;10367562;28;1276;-73
2023/06/14 03:49:34;;;;;;;;;;;22.80;57.00;;;;;;10368465;28;1207;-73
2023/06/14 03:54:33;;;;;;;;;;;22.80;56.90;;;;;;10367129;28;1902;-73
2023/06/14 04:04:55;;;;;;;;;;;22.80;57.00;;;;;;10368239;28;1482;-73
2023/06/14 04:09:51;;;;;;;;;;;22.80;57.00;;;;;;10368300;28;1971;-73
2023/06/14 04:14:46;;;;;;;;;;;22.80;57.00;;;;;;10367321;28;1218;-73
2023/06/14 04:19:45;;;;;;;;;;;22.70;57.00;;;;;;10366955;28;939;-69
2023/06/14 04:24:52;;;;;;;;;;;22.70;57.00;;;;;;10366719;28;1343;-69
2023/06/14 04:29:53;;;;;;;;;;;22.70;56.90;;;;;;10367103;28;1905;-68
2023/06/14 04:34:53;;;;;;;;;;;22.70;56.90;;;;;;10367087;28;1028;-69
2023/06/14 04:39:52;;;;;;;;;;;22.60;56.80;;;;;;10367140;28;1255;-69
2023/06/14 04:44:50;;;;;;;;;;;22.60;56.80;;;;;;10366407;28;1169;-69
2023/06/14 04:49:45;;;;;;;;;;;22.60;56.70;;;;;;10366572;28;864;-69
2023/06/14 04:59:55;;;;;;;;;;;22.60;56.70;;;;;;10365930;28;604;-69
2023/06/14 05:04:54;;;;;;;;;;;22.60;56.80;;;;;;10366360;28;881;-68
2023/06/14 05:10:00;;;;;;;;;;;22.60;56.70;;;;;;10347429;28;1910;-68
2023/06/14 05:15:02;;;;;;;;;;;22.60;56.70;;;;;;10366737;28;895;-69
2023/06/14 05:20:05;;;;;;;;;;;22.60;56.80;;;;;;10366700;28;863;-68
2023/06/14 05:25:04;;;;;;;;;;;22.50;56.70;;;;;;10364649;28;1314;-68
2023/06/14 05:30:03;;;;;;;;;;;22.50;56.70;;;;;;10372205;28;1892;-68
2023/06/14 05:35:05;;;;;;;;;;;22.50;56.70;;;;;;10375026;28;965;-68
2023/06/14 05:40:01;;;;;;;;;;;22.50;56.80;;;;;;10373152;28;1295;-69
2023/06/14 05:45:06;;;;;;;;;;;22.50;56.80;;;;;;10374145;28;766;-68
2023/06/14 05:55:18;;;;;;;;;;;22.50;56.90;;;;;;10371831;28;1412;-69
2023/06/14 06:00:18;;;;;;;;;;;22.40;56.80;;;;;;10373464;28;939;-69
2023/06/14 06:05:16;;;;;;;;;;;22.50;56.90;;;;;;10372820;28;991;-69
2023/06/14 06:10:15;;;;;;;;;;;22.40;56.90;;;;;;10373099;28;1965;-69
2023/06/14 06:15:17;;;;;;;;;;;22.40;56.80;;;;;;10371601;28;1328;-68
2023/06/14 06:20:12;;;;;;;;;;;22.40;56.90;;;;;;10372090;28;1195;-69
2023/06/14 06:25:08;;;;;;;;;;;22.40;56.80;;;;;;10371811;28;1328;-69
2023/06/14 06:30:04;;;;;;;;;;;22.40;56.90;;;;;;10371571;28;1906;-69
2023/06/14 06:35:10;;;;;;;;;;;22.40;57.00;;;;;;10370790;28;1048;-69
2023/06/14 06:40:06;;;;;;;;;;;22.40;57.00;;;;;;10370835;28;1226;-68
2023/06/14 06:45:09;;;;;;;;;;;22.40;57.00;;;;;;10371070;28;1345;-69
2023/06/14 06:50:07;;;;;;;;;;;22.40;57.10;;;;;;10370903;28;1917;-69
2023/06/14 06:55:03;;;;;;;;;;;22.40;57.00;;;;;;10370767;28;777;-69
2023/06/14 07:00:02;;;;;;;;;;;22.40;57.20;;;;;;10370007;28;1339;-68
2023/06/14 07:05:10;;;;;;;;;;;22.40;57.10;;;;;;10370552;28;1212;-68
2023/06/14 07:10:08;;;;;;;;;;;22.30;56.30;;;;;;10370442;28;1898;-68
2023/06/14 07:15:10;;;;;;;;;;;22.30;55.20;;;;;;10369262;28;913;-68
2023/06/14 07:20:18;;;;;;;;;;;22.20;54.30;;;;;;10369604;28;968;-68
2023/06/14 07:25:26;;;;;;;;;;;22.20;53.70;;;;;;10367425;28;956;-68
2023/06/14 07:30:29;;;;;;;;;;;22.20;52.80;;;;;;10369255;28;1906;-68
2023/06/14 07:35:28;;;;;;;;;;;22.10;52.60;;;;;;10368999;28;883;-68
2023/06/14 07:40:32;;;;;;;;;;;22.10;52.40;;;;;;10368279;28;1440;-68
2023/06/14 07:45:31;;;;;;;;;;;22.10;52.10;;;;;;10368789;28;849;-68
2023/06/14 07:50:26;;;;;;;;;;;22.10;51.90;;;;;;10368005;28;1918;-68
2023/06/14 07:55:25;;;;;;;;;;;22.10;52.20;;;;;;10368364;28;824;-68
2023/06/14 08:00:36;;;;;;;;;;;22.00;52.00;;;;;;10362158;28;1400;-78
2023/06/14 08:05:31;;;;;;;;;;;22.10;51.10;;;;;;10368823;28;878;-79
2023/06/14 08:10:29;;;;;;;;;;;22.10;51.10;;;;;;10366706;28;1979;-78
2023/06/14 08:15:25;;;;;;;;;;;22.10;51.40;;;;;;10367407;28;1293;-78
2023/06/14 08:20:21;;;;;;;;;;;22.20;51.80;;;;;;10366410;28;1308;-78
2023/06/14 08:25:35;;;;;;;;;;;22.20;52.10;;;;;;10367326;28;1184;-79
2023/06/14 08:30:33;;;;;;;;;;;22.20;52.50;;;;;;10367253;28;1905;-78
2023/06/14 08:35:29;;;;;;;;;;;22.20;52.80;;;;;;10366974;28;1353;-78
2023/06/14 08:40:27;;;;;;;;;;;22.20;53.00;;;;;;10367839;28;1409;-78
2023/06/14 08:45:26;;;;;;;;;;;22.20;53.40;;;;;;10367480;28;1184;-78
2023/06/14 08:50:26;;;;;;;;;;;22.20;53.50;;;;;;10366250;28;1906;-78
2023/06/14 08:55:25;;;;;;;;;;;22.20;53.60;;;;;;10367242;28;844;-73
2023/06/14 09:00:24;;;;;;;;;;;22.20;53.60;;;;;;10365754;28;1044;-74
2023/06/14 09:05:21;;;;;;;;;;;22.20;53.80;;;;;;10373228;28;987;-73
2023/06/14 09:10:19;;;;;;;;;;;22.20;54.00;;;;;;10375191;28;1891;-73
2023/06/14 09:15:17;;;;;;;;;;;22.20;53.90;;;;;;10374502;28;939;-73
2023/06/14 09:20:19;;;;;;;;;;;22.20;54.10;;;;;;10374038;28;960;-74
2023/06/14 09:25:22;;;;;;;;;;;22.20;54.20;;;;;;10374893;28;796;-74
2023/06/14 09:30:20;;;;;;;;;;;22.20;54.10;;;;;;10369484;28;1961;-75
2023/06/14 09:35:24;;;;;;;;;;;22.20;54.00;;;;;;10373629;28;880;-74
2023/06/14 09:40:22;;;;;;;;;;;22.20;54.10;;;;;;10373646;28;1273;-76
2023/06/14 09:45:24;;;;;;;;;;;22.10;53.90;;;;;;10373957;28;1442;-78
2023/06/14 09:50:19;;;;;;;;;;;22.20;54.60;;;;;;10372933;28;1910;-75
2023/06/14 09:55:15;;;;;;;;;;;22.20;54.00;;;;;;10372547;28;956;-75
2023/06/14 10:00:11;;;;;;;;;;;22.20;54.00;;;;;;10373210;28;863;-73
2023/06/14 10:05:06;;;;;;;;;;;22.20;54.00;;;;;;10372723;28;864;-74
2023/06/14 10:10:02;;;;;;;;;;;22.20;54.10;;;;;;10372419;28;1913;-74
2023/06/14 10:15:04;;;;;;;;;;;22.20;54.00;;;;;;10371868;28;980;-74
2023/06/14 10:20:00;;;;;;;;;;;22.20;54.10;;;;;;10372213;28;788;-74
2023/06/14 10:24:55;;;;;;;;;;;22.20;54.10;;;;;;10372571;28;872;-74
2023/06/14 10:29:50;;;;;;;;;;;22.10;53.90;;;;;;10372380;28;1862;-74
2023/06/14 10:34:46;;;;;;;;;;;22.20;54.00;;;;;;10371415;28;1898;-71
2023/06/14 10:39:45;;;;;;;;;;;22.10;54.10;;;;;;10371406;28;1026;-69
2023/06/14 10:44:55;;;;;;;;;;;22.00;53.40;;;;;;10370767;28;1422;-69
2023/06/14 10:49:51;;;;;;;;;;;22.00;51.60;;;;;;10371030;28;864;-69
2023/06/14 10:54:47;;;;;;;;;;;21.90;51.80;;;;;;10370849;28;1972;-68
2023/06/14 10:59:48;;;;;;;;;;;21.90;50.80;;;;;;10370578;28;781;-69
2023/06/14 11:04:43;;;;;;;;;;;21.90;50.20;;;;;;10369073;28;1507;-69
2023/06/14 11:09:41;;;;;;;;;;;21.90;51.80;;;;;;10370685;28;911;-68
2023/06/14 11:14:37;;;;;;;;;;;21.90;51.60;;;;;;10369031;28;2023;-68
2023/06/14 11:19:36;;;;;;;;;;;21.90;51.50;;;;;;10369870;28;839;-69
2023/06/14 11:24:43;;;;;;;;;;;21.90;52.10;;;;;;10367925;28;1356;-68
2023/06/14 11:29:38;;;;;;;;;;;21.90;53.00;;;;;;10369669;28;1761;-69
2023/06/14 11:34:34;;;;;;;;;;;21.90;53.20;;;;;;10369935;28;1897;-69
2023/06/14 11:39:32;;;;;;;;;;;21.80;53.30;;;;;;10369050;28;967;-69
2023/06/14 11:44:34;;;;;;;;;;;21.90;52.40;;;;;;10369078;28;1368;-68
2023/06/14 11:49:30;;;;;;;;;;;21.90;52.70;;;;;;10369236;28;812;-68
2023/06/14 11:54:28;;;;;;;;;;;21.90;52.60;;;;;;10368428;28;1917;-69
2023/06/14 11:59:27;;;;;;;;;;;21.90;53.10;;;;;;10368171;28;1233;-69
2023/06/14 12:04:22;;;;;;;;;;;21.80;52.70;;;;;;10368929;28;897;-69
2023/06/14 12:09:23;;;;;;;;;;;21.90;52.90;;;;;;10367624;28;998;-69
2023/06/14 12:14:22;;;;;;;;;;;21.90;52.70;;;;;;10367634;28;1894;-69
2023/06/14 12:19:17;;;;;;;;;;;21.90;53.10;;;;;;10367575;28;877;-69
2023/06/14 12:24:22;;;;;;;;;;;21.90;53.20;;;;;;10369032;28;1891;-69
2023/06/14 12:29:20;;;;;;;;;;;21.80;53.30;;;;;;10367422;28;1211;-69
2023/06/14 12:34:16;;;;;;;;;;;21.90;53.40;;;;;;10366506;28;2003;-69
2023/06/14 12:39:11;;;;;;;;;;;21.90;53.40;;;;;;10367724;28;1045;-69
2023/06/14 12:44:09;;;;;;;;;;;21.90;53.50;;;;;;10366832;28;1289;-69
2023/06/14 12:49:05;;;;;;;;;;;21.80;53.50;;;;;;10367047;28;1126;-69
2023/06/14 12:54:00;;;;;;;;;;;21.90;53.50;;;;;;10366414;28;1917;-69
2023/06/14 12:58:56;;;;;;;;;;;21.90;53.50;;;;;;10365782;28;825;-69
2023/06/14 13:03:53;;;;;;;;;;;21.90;53.50;;;;;;10366091;28;777;-69
2023/06/14 13:08:50;;;;;;;;;;;21.90;53.40;;;;;;10366631;28;949;-69
2023/06/14 13:13:48;;;;;;;;;;;21.90;53.50;;;;;;10365848;28;1905;-70
2023/06/14 13:18:43;;;;;;;;;;;21.90;53.60;;;;;;10366425;28;814;-68
2023/06/14 13:23:38;;;;;;;;;;;21.90;53.60;;;;;;10365154;28;967;-69
2023/06/14 13:28:35;;;;;;;;;;;21.90;53.70;;;;;;10365703;28;1151;-69
2023/06/14 13:33:36;;;;;;;;;;;21.90;53.80;;;;;;10366054;28;1963;-69
2023/06/14 13:38:35;;;;;;;;;;;21.90;53.80;;;;;;10364795;28;1187;-69
2023/06/14 13:43:33;;;;;;;;;;;21.90;53.80;;;;;;10364633;28;1450;-69
2023/06/14 13:48:30;;;;;;;;;;;21.90;53.90;;;;;;10366668;28;1338;-70
2023/06/14 13:53:25;;;;;;;;;;;21.90;53.90;;;;;;10372936;28;1976;-69
2023/06/14 13:58:20;;;;;;;;;;;21.90;53.90;;;;;;10373033;28;1160;-69
2023/06/14 14:03:19;;;;;;;;;;;21.90;53.80;;;;;;10373054;28;1507;-69
2023/06/14 14:08:15;;;;;;;;;;;21.90;53.90;;;;;;10372462;28;917;-69
2023/06/14 14:13:13;;;;;;;;;;;22.00;53.90;;;;;;10372458;28;1874;-69
2023/06/14 14:18:11;;;;;;;;;;;22.00;54.00;;;;;;10372251;28;817;-69
2023/06/14 14:23:10;;;;;;;;;;;22.00;54.20;;;;;;10372058;28;880;-69
2023/06/14 14:28:05;;;;;;;;;;;22.00;54.40;;;;;;10372022;28;1439;-69
2023/06/14 14:33:04;;;;;;;;;;;22.00;54.40;;;;;;10371859;28;1902;-70
2023/06/14 14:38:03;;;;;;;;;;;22.00;55.00;;;;;;10371523;28;1040;-69
2023/06/14 14:42:58;;;;;;;;;;;22.10;55.00;;;;;;10371170;28;1130;-68
2023/06/14 14:47:54;;;;;;;;;;;22.10;55.70;;;;;;10371040;28;879;-69
2023/06/14 14:52:58;;;;;;;;;;;22.10;56.10;;;;;;10370357;28;1906;-69
2023/06/14 14:57:53;;;;;;;;;;;22.10;56.20;;;;;;10370774;28;884;-69
2023/06/14 15:02:52;;;;;;;;;;;22.10;55.20;;;;;;10370066;28;874;-69
2023/06/14 15:07:54;;;;;;;;;;;22.10;55.00;;;;;;10370347;28;934;-69
2023/06/14 15:12:49;;;;;;;;;;;22.10;55.70;;;;;;10369267;28;1895;-68
2023/06/14 15:17:47;;;;;;;;;;;22.10;55.50;;;;;;10370759;28;781;-69
2023/06/14 15:22:43;;;;;;;;;;;22.20;55.20;;;;;;10369370;28;876;-69
2023/06/14 15:27:41;;;;;;;;;;;22.10;55.20;;;;;;10370148;28;886;-69
2023/06/14 15:42:51;;;;;;;;;;;22.20;55.30;;;;;;10319924;22;2256;-69
2023/06/14 15:47:46;;;;;;;;;;;22.20;55.40;;;;;;10369504;28;872;-68
2023/06/14 15:52:42;;;;;;;;;;;22.20;55.30;;;;;;10368630;28;1973;-69
2023/06/14 15:57:38;;;;;;;;;;;22.20;55.30;;;;;;10368522;28;904;-69
2023/06/14 16:02:33;;;;;;;;;;;22.20;55.40;;;;;;10368881;28;819;-72
2023/06/14 16:07:28;;;;;;;;;;;22.20;55.40;;;;;;10368770;28;863;-69
2023/06/14 16:12:24;;;;;;;;;;;22.20;55.30;;;;;;10367520;28;1914;-68
2023/06/14 16:17:20;;;;;;;;;;;22.20;55.50;;;;;;10368865;28;829;-69
2023/06/14 16:22:15;;;;;;;;;;;22.20;55.40;;;;;;10367655;28;948;-69
2023/06/14 16:27:12;;;;;;;;;;;22.20;55.50;;;;;;10368058;28;867;-69
2023/06/14 16:32:08;;;;;;;;;;;22.30;55.70;;;;;;10367454;28;1967;-69
2023/06/14 16:37:04;;;;;;;;;;;22.30;55.70;;;;;;10367770;28;792;-69
2023/06/14 16:41:59;;;;;;;;;;;22.30;55.60;;;;;;10367187;28;1416;-69
2023/06/14 16:46:54;;;;;;;;;;;22.30;55.70;;;;;;10367543;28;785;-69
2023/06/14 16:51:50;;;;;;;;;;;22.30;55.60;;;;;;10367240;28;1980;-69
2023/06/14 16:56:45;;;;;;;;;;;22.30;55.60;;;;;;10367216;28;799;-69
2023/06/14 17:01:40;;;;;;;;;;;22.30;55.60;;;;;;10365921;28;916;-69
2023/06/14 17:06:36;;;;;;;;;;;22.30;55.60;;;;;;10366468;28;871;-69
2023/06/14 17:11:31;;;;;;;;;;;22.30;55.60;;;;;;10366273;28;1914;-69
2023/06/14 17:16:26;;;;;;;;;;;22.30;55.60;;;;;;10366871;28;812;-69
2023/06/14 17:21:22;;;;;;;;;;;22.30;55.70;;;;;;10366896;28;915;-69
2023/06/14 17:26:18;;;;;;;;;;;22.30;55.60;;;;;;10372063;28;1229;-69
2023/06/14 17:31:13;;;;;;;;;;;22.30;55.60;;;;;;10374830;28;1910;-69
2023/06/14 17:36:08;;;;;;;;;;;22.30;55.60;;;;;;10375446;28;859;-69
2023/06/14 17:41:08;;;;;;;;;;;22.30;55.60;;;;;;10373593;28;1306;-69
2023/06/14 17:46:04;;;;;;;;;;;22.30;55.60;;;;;;10373734;28;780;-69
2023/06/14 17:51:00;;;;;;;;;;;22.30;55.60;;;;;;10374015;28;2041;-69
2023/06/14 17:55:55;;;;;;;;;;;22.30;55.60;;;;;;10373444;28;887;-69
2023/06/14 18:00:50;;;;;;;;;;;22.30;55.60;;;;;;10373717;28;801;-69
2023/06/14 18:05:46;;;;;;;;;;;22.40;55.70;;;;;;10372992;28;800;-71
2023/06/14 18:10:41;;;;;;;;;;;22.30;55.50;;;;;;10372612;28;1910;-69
2023/06/14 18:15:37;;;;;;;;;;;22.40;55.70;;;;;;10372551;28;902;-69
2023/06/14 18:20:32;;;;;;;;;;;22.40;55.60;;;;;;10372993;28;970;-67
2023/06/14 18:25:28;;;;;;;;;;;22.40;55.60;;;;;;10372202;28;753;-67
2023/06/14 18:30:23;;;;;;;;;;;22.30;55.50;;;;;;10371900;28;1911;-67
2023/06/14 18:35:18;;;;;;;;;;;22.30;55.50;;;;;;10372121;28;862;-67
2023/06/14 18:40:14;;;;;;;;;;;22.30;55.20;;;;;;10370792;28;1168;-67
2023/06/14 18:45:09;;;;;;;;;;;22.40;55.20;;;;;;10371241;28;1324;-67
2023/06/14 18:50:05;;;;;;;;;;;22.30;55.00;;;;;;10371202;28;789;-67
2023/06/14 18:55:00;;;;;;;;;;;22.30;54.70;;;;;;10371540;28;1911;-67
2023/06/14 18:59:55;;;;;;;;;;;22.30;54.60;;;;;;10370852;28;804;-68
2023/06/14 19:04:51;;;;;;;;;;;22.40;54.90;;;;;;10370611;28;808;-69
2023/06/14 19:09:46;;;;;;;;;;;22.40;55.10;;;;;;10370528;28;855;-69
2023/06/14 19:14:41;;;;;;;;;;;22.30;55.20;;;;;;10370238;28;1973;-69
2023/06/14 19:19:37;;;;;;;;;;;22.40;55.20;;;;;;10370084;28;923;-69
2023/06/14 19:24:32;;;;;;;;;;;22.40;55.20;;;;;;10369815;28;889;-69
2023/06/14 19:29:30;;;;;;;;;;;22.30;55.10;;;;;;10369690;28;781;-69
2023/06/14 19:34:25;;;;;;;;;;;22.40;55.10;;;;;;10369990;28;1969;-69
2023/06/14 19:39:20;;;;;;;;;;;22.40;55.20;;;;;;10370175;28;947;-69
2023/06/14 19:44:17;;;;;;;;;;;22.40;55.10;;;;;;10370125;28;1308;-69
2023/06/14 19:49:12;;;;;;;;;;;22.40;55.10;;;;;;10368762;28;866;-69
2023/06/14 19:54:08;;;;;;;;;;;22.40;55.10;;;;;;10369185;28;1965;-69
2023/06/14 19:59:03;;;;;;;;;;;22.40;55.00;;;;;;10368508;28;907;-69
2023/06/14 20:03:58;;;;;;;;;;;22.40;55.00;;;;;;10368317;28;750;-69
2023/06/14 20:08:54;;;;;;;;;;;22.40;55.20;;;;;;10368794;28;804;-69
2023/06/14 20:13:49;;;;;;;;;;;22.40;55.00;;;;;;10367544;28;1965;-69
2023/06/14 20:18:45;;;;;;;;;;;22.40;55.00;;;;;;10368397;28;936;-69
2023/06/14 20:23:40;;;;;;;;;;;22.40;55.10;;;;;;10367681;28;952;-69
2023/06/14 20:28:35;;;;;;;;;;;22.40;55.10;;;;;;10368263;28;854;-70
2023/06/14 20:33:31;;;;;;;;;;;22.40;55.20;;;;;;10367857;28;1963;-69
2023/06/14 20:38:27;;;;;;;;;;;22.40;55.10;;;;;;10367185;28;794;-70
2023/06/14 20:43:22;;;;;;;;;;;22.40;55.20;;;;;;10367137;28;1100;-69
2023/06/14 20:48:18;;;;;;;;;;;22.40;55.10;;;;;;10366924;28;869;-69
2023/06/14 20:53:13;;;;;;;;;;;22.40;55.10;;;;;;10366113;28;1975;-70
2023/06/14 20:58:09;;;;;;;;;;;22.40;55.00;;;;;;10367177;28;851;-70
2023/06/14 21:03:04;;;;;;;;;;;22.40;55.10;;;;;;10365949;28;994;-69
2023/06/14 21:07:59;;;;;;;;;;;22.40;54.90;;;;;;10365886;28;809;-70
2023/06/14 21:12:55;;;;;;;;;;;22.40;55.00;;;;;;10367092;28;1959;-70
2023/06/14 21:17:50;;;;;;;;;;;22.40;55.10;;;;;;10366373;28;866;-69
2023/06/14 21:22:50;;;;;;;;;;;22.40;54.90;;;;;;10366938;28;891;-70
2023/06/14 21:27:45;;;;;;;;;;;22.40;55.00;;;;;;10366675;28;819;-69
2023/06/14 21:32:43;;;;;;;;;;;22.40;54.90;;;;;;10366040;28;1910;-69
2023/06/14 21:37:38;;;;;;;;;;;22.40;54.90;;;;;;10366660;28;757;-69
2023/06/14 21:42:34;;;;;;;;;;;22.40;54.90;;;;;;10365126;28;1302;-69
2023/06/14 21:47:29;;;;;;;;;;;22.40;54.90;;;;;;10366535;28;892;-69
2023/06/14 21:52:24;;;;;;;;;;;22.40;54.90;;;;;;10366375;28;1914;-69
2023/06/14 21:57:20;;;;;;;;;;;22.40;54.80;;;;;;10365470;28;873;-69
2023/06/14 22:02:15;;;;;;;;;;;22.40;54.80;;;;;;10365466;28;936;-69
2023/06/14 22:07:18;;;;;;;;;;;22.40;55.00;;;;;;10365969;28;867;-69
2023/06/14 22:12:15;;;;;;;;;;;22.40;55.00;;;;;;10371514;28;1958;-69
2023/06/14 22:17:13;;;;;;;;;;;22.40;54.90;;;;;;10372500;28;870;-69
2023/06/14 22:22:08;;;;;;;;;;;22.30;54.80;;;;;;10372294;28;873;-69
2023/06/14 22:27:04;;;;;;;;;;;22.40;54.80;;;;;;10372158;28;887;-69
2023/06/14 22:32:00;;;;;;;;;;;22.40;54.90;;;;;;10372531;28;1902;-69
2023/06/14 22:36:55;;;;;;;;;;;22.30;54.90;;;;;;10371959;28;785;-69
2023/06/14 22:41:50;;;;;;;;;;;22.40;55.00;;;;;;10372411;28;1141;-69
2023/06/14 22:46:46;;;;;;;;;;;22.30;54.90;;;;;;10371416;28;813;-70
2023/06/14 22:51:43;;;;;;;;;;;22.30;55.00;;;;;;10371203;28;1917;-69
2023/06/14 22:56:40;;;;;;;;;;;22.30;55.00;;;;;;10370290;28;885;-69
2023/06/14 23:01:36;;;;;;;;;;;22.30;55.00;;;;;;10371397;28;868;-69
2023/06/14 23:06:33;;;;;;;;;;;22.30;55.00;;;;;;10370588;28;865;-70
2023/06/14 23:11:28;;;;;;;;;;;22.30;55.00;;;;;;10370047;28;1898;-69
2023/06/14 23:16:24;;;;;;;;;;;22.30;54.90;;;;;;10370854;28;786;-69
2023/06/14 23:21:20;;;;;;;;;;;22.30;54.90;;;;;;10368965;28;967;-69
2023/06/14 23:26:16;;;;;;;;;;;22.30;54.90;;;;;;10369354;28;839;-69
2023/06/14 23:31:11;;;;;;;;;;;22.30;54.90;;;;;;10369496;28;1949;-70
2023/06/14 23:36:08;;;;;;;;;;;22.30;54.80;;;;;;10370202;28;1658;-69
2023/06/14 23:41:05;;;;;;;;;;;22.30;54.90;;;;;;10369108;28;1494;-69
2023/06/14 23:46:00;;;;;;;;;;;22.30;54.80;;;;;;10369165;28;894;-69
2023/06/14 23:50:56;;;;;;;;;;;22.30;54.90;;;;;;10368761;28;1909;-70
2023/06/14 23:55:52;;;;;;;;;;;22.30;54.90;;;;;;10369257;28;953;-69
